Time;durP1;ratioP1;P1;durP2;ratioP2;P2;SDS_P1;SDS_P2;PMS_P1;PMS_P2;Temp;Humidity;BMP_temperature;BMP_pressure;BME280_temperature;BME280_humidity;BME280_pressure;Samples;Min_cycle;Max_cycle;Signal;HPM_P1;HPM_P2
2021/04/04 00:00:10;;;;;;;20.45;10.80;;;;;;;5.06;61.68;99370.03;1697579;83;21101;-62
2021/04/04 00:02:42;;;;;;;21.60;10.13;;;;;;;5.04;61.82;99372.09;1660490;85;22231;-64
2021/04/04 00:05:11;;;;;;;19.57;10.70;;;;;;;5.03;61.92;99371.30;1689142;83;21157;-66
2021/04/04 00:07:41;;;;;;;20.60;10.53;;;;;;;5.06;61.94;99374.84;1671631;85;21058;-64
2021/04/04 00:10:11;;;;;;;15.63;9.13;;;;;;;5.10;61.91;99364.55;1713497;83;21594;-68
2021/04/04 00:12:38;;;;;;;15.60;9.53;;;;;;;5.13;61.91;99364.12;1682439;84;21205;-64
2021/04/04 00:15:09;;;;;;;18.12;10.00;;;;;;;5.16;61.95;99370.33;1681309;85;22843;-67
2021/04/04 00:17:38;;;;;;;13.22;9.05;;;;;;;5.17;62.03;99376.78;1661563;86;21596;-64
2021/04/04 00:20:12;;;;;;;18.37;10.55;;;;;;;5.21;61.99;99375.81;1674553;85;21137;-64
2021/04/04 00:22:40;;;;;;;18.87;11.48;;;;;;;5.22;62.08;99379.59;1675893;84;21591;-63
2021/04/04 00:25:10;;;;;;;17.48;11.00;;;;;;;5.23;62.26;99380.39;1673112;85;21169;-62
2021/04/04 00:27:38;;;;;;;28.80;18.65;;;;;;;5.20;62.40;99386.17;1695401;84;21868;-63
2021/04/04 00:30:14;;;;;;;22.95;12.68;;;;;;;5.21;62.36;99377.96;1661553;85;21252;-63
2021/04/04 00:32:42;;;;;;;21.07;11.18;;;;;;;5.25;62.30;99379.66;1692663;84;21106;-63
2021/04/04 00:35:12;;;;;;;21.10;12.58;;;;;;;5.27;62.21;99380.27;1689268;85;21177;-62
2021/04/04 00:37:39;;;;;;;19.37;11.63;;;;;;;5.23;62.35;99385.20;1693438;84;21215;-62
2021/04/04 00:40:13;;;;;;;25.25;12.23;;;;;;;5.18;62.44;99378.39;1667089;85;21410;-62
2021/04/04 00:42:41;;;;;;;19.85;11.68;;;;;;;5.15;62.56;99384.69;1700425;83;21014;-63
2021/04/04 00:45:20;;;;;;;19.00;10.43;;;;;;;5.16;62.59;99376.48;1702967;84;21505;-62
2021/04/04 00:47:49;;;;;;;23.07;12.55;;;;;;;5.20;62.52;99381.66;1689628;85;21002;-62
2021/04/04 00:50:18;;;;;;;21.00;11.18;;;;;;;5.22;62.43;99387.59;1703494;83;21189;-62
2021/04/04 00:52:46;;;;;;;21.35;12.58;;;;;;;5.18;62.35;99381.05;1701602;83;21217;-62
2021/04/04 00:55:17;;;;;;;20.77;12.68;;;;;;;5.01;62.38;99389.35;1689326;85;21160;-62
2021/04/04 00:57:45;;;;;;;18.25;12.03;;;;;;;4.96;62.64;99384.38;1702919;83;21576;-63
2021/04/04 01:00:16;;;;;;;20.00;11.75;;;;;;;4.98;62.76;99381.81;1693818;84;21204;-66
2021/04/04 01:02:44;;;;;;;21.12;13.18;;;;;;;5.00;62.83;99381.05;1680898;85;21221;-64
2021/04/04 01:05:16;;;;;;;22.45;12.15;;;;;;;5.03;62.74;99385.14;1702842;84;21364;-63
2021/04/04 01:07:46;;;;;;;18.15;10.25;;;;;;;5.05;62.67;99389.72;1688998;85;21110;-62
2021/04/04 01:10:14;;;;;;;19.48;11.63;;;;;;;5.03;62.50;99383.30;1702793;84;21202;-65
2021/04/04 01:12:57;;;;;;;18.57;10.53;;;;;;;4.86;62.62;99400.88;1702363;84;21177;-63
2021/04/04 01:15:34;;;;;;;19.67;12.78;;;;;;;4.53;63.17;99393.20;1681050;85;21157;-64
2021/04/04 01:18:33;;;;;;;13.72;8.85;;;;;;;4.15;63.92;99409.25;1670900;85;22414;-65
2021/04/04 01:21:15;;;;;;;12.78;7.75;;;;;;;3.92;64.58;99410.33;1645189;85;21176;-63
2021/04/04 01:24:05;;;;;;;13.30;8.87;;;;;;;3.92;65.41;99407.67;1691588;84;21240;-64
2021/04/04 01:26:53;;;;;;;11.35;6.80;;;;;;;3.97;65.70;99407.84;1670766;85;21169;-65
2021/04/04 01:29:24;;;;;;;9.40;6.70;;;;;;;3.98;65.77;99413.44;1643625;85;21153;-64
2021/04/04 01:31:51;;;;;;;11.60;6.72;;;;;;;3.96;66.00;99430.15;1659716;85;21121;-62
2021/04/04 01:34:24;;;;;;;12.28;6.17;;;;;;;3.89;65.92;99427.52;1703524;84;21001;-66
2021/04/04 01:36:54;;;;;;;15.60;8.63;;;;;;;3.82;66.03;99434.73;1658650;86;21011;-64
2021/04/04 01:39:23;;;;;;;11.40;6.92;;;;;;;3.72;66.17;99429.56;1690022;84;21240;-62
2021/04/04 01:41:50;;;;;;;8.60;6.53;;;;;;;3.62;66.45;99427.35;1672142;85;21137;-65
2021/04/04 01:44:21;;;;;;;11.68;8.38;;;;;;;3.53;66.75;99428.63;1689306;83;21377;-63
2021/04/04 01:46:50;;;;;;;11.40;8.13;;;;;;;3.45;67.17;99431.52;1686309;85;21134;-63
2021/04/04 01:49:19;;;;;;;15.68;10.50;;;;;;;3.35;67.57;99425.83;1718919;83;21133;-64
2021/04/04 01:51:49;;;;;;;18.35;12.55;;;;;;;3.27;67.88;99428.19;1685269;85;21612;-62
2021/04/04 01:54:18;;;;;;;18.42;9.95;;;;;;;3.26;68.35;99424.43;1718877;83;21175;-62
2021/04/04 01:56:45;;;;;;;14.50;8.65;;;;;;;3.25;68.42;99424.13;1686449;85;22150;-63
2021/04/04 01:59:16;;;;;;;13.70;9.68;;;;;;;3.28;68.56;99425.84;1680247;84;21196;-63
2021/04/04 02:01:45;;;;;;;14.70;9.33;;;;;;;3.31;68.54;99420.09;1667534;85;21090;-64
2021/04/04 02:04:14;;;;;;;17.40;11.75;;;;;;;3.34;68.67;99418.88;1703309;83;21021;-65
2021/04/04 02:06:44;;;;;;;14.00;8.75;;;;;;;3.34;68.61;99422.35;1658589;86;21240;-64
2021/04/04 02:09:14;;;;;;;16.10;9.33;;;;;;;3.40;68.73;99427.34;1660450;85;48524;-62
2021/04/04 02:11:45;;;;;;;17.75;9.30;;;;;;;3.47;68.84;99424.14;1655248;85;21220;-64
2021/04/04 02:14:16;;;;;;;17.90;9.75;;;;;;;3.55;68.71;99431.87;1672041;85;21209;-64
2021/04/04 02:16:47;;;;;;;17.87;9.85;;;;;;;3.61;68.60;99429.70;1703168;84;21196;-64
2021/04/04 02:19:18;;;;;;;15.63;9.48;;;;;;;3.65;68.57;99432.23;1703046;84;21168;-65
2021/04/04 02:21:51;;;;;;;14.85;9.93;;;;;;;3.72;68.42;99430.37;1675785;85;21707;-64
2021/04/04 02:24:21;;;;;;;16.37;10.50;;;;;;;3.74;68.36;99432.30;1690061;84;21139;-63
2021/04/04 02:26:50;;;;;;;12.80;8.45;;;;;;;3.77;68.28;99431.89;1658595;86;21050;-64
2021/04/04 02:29:19;;;;;;;16.32;9.05;;;;;;;3.73;68.20;99433.86;1690424;83;21594;-64
2021/04/04 02:31:54;;;;;;;15.65;9.73;;;;;;;3.71;68.34;99432.73;1669717;85;21645;-63
2021/04/04 02:34:25;;;;;;;13.88;8.73;;;;;;;3.79;68.44;99434.34;1718797;83;21583;-64
2021/04/04 02:36:54;;;;;;;15.88;9.53;;;;;;;3.84;68.47;99435.83;1684984;85;21075;-64
2021/04/04 02:39:47;;;;;;;11.97;8.23;;;;;;;3.87;68.30;99434.09;1692944;83;21603;-63
2021/04/04 02:42:21;;;;;;;16.23;9.53;;;;;;;3.92;68.24;99428.95;1655535;85;21579;-62
2021/04/04 02:44:52;;;;;;;18.80;9.25;;;;;;;3.91;68.15;99425.98;1670610;85;21559;-64
2021/04/04 02:47:24;;;;;;;16.30;9.88;;;;;;;3.92;68.75;99425.78;1698987;84;21378;-63
2021/04/04 02:49:52;;;;;;;14.87;8.13;;;;;;;3.99;68.58;99419.06;1685246;85;21232;-62
2021/04/04 02:52:21;;;;;;;10.35;7.92;;;;;;;4.06;68.43;99423.03;1703433;83;21149;-63
2021/04/04 02:54:53;;;;;;;11.88;7.78;;;;;;;4.15;68.07;99429.22;1718424;83;21542;-63
2021/04/04 02:57:24;;;;;;;10.53;7.90;;;;;;;4.23;67.85;99431.61;1644312;85;21645;-63
2021/04/04 02:59:54;;;;;;;9.58;6.15;;;;;;;4.25;67.70;99425.56;1703594;82;21403;-63
2021/04/04 03:02:22;;;;;;;13.93;8.88;;;;;;;4.30;67.71;99418.27;1658541;86;21338;-63
2021/04/04 03:04:50;;;;;;;10.45;6.17;;;;;;;4.29;67.62;99424.10;1714573;83;21196;-63
2021/04/04 03:07:20;;;;;;;10.25;7.03;;;;;;;4.31;67.73;99423.38;1685710;85;21138;-65
2021/04/04 03:09:51;;;;;;;9.60;6.72;;;;;;;4.37;67.56;99421.67;1718860;83;21113;-63
2021/04/04 03:12:20;;;;;;;13.68;8.13;;;;;;;4.41;67.48;99422.91;1658424;85;21414;-63
2021/04/04 03:14:50;;;;;;;18.75;9.40;;;;;;;4.44;67.47;99425.63;1670082;85;21160;-64
2021/04/04 03:17:17;;;;;;;14.00;7.62;;;;;;;4.41;67.48;99433.55;1699052;84;21103;-64
2021/04/04 03:19:46;;;;;;;14.13;7.87;;;;;;;4.39;67.63;99430.28;1660634;85;21083;-63
2021/04/04 03:22:14;;;;;;;15.98;10.15;;;;;;;4.37;67.83;99429.16;1665585;84;21209;-67
2021/04/04 03:24:42;;;;;;;15.30;9.28;;;;;;;4.26;67.80;99429.05;1612910;86;22389;-63
2021/04/04 03:27:10;;;;;;;20.50;10.30;;;;;;;4.12;67.95;99426.99;1690162;84;21060;-62
2021/04/04 03:29:39;;;;;;;12.35;8.70;;;;;;;4.10;68.11;99426.89;1634056;86;21180;-64
2021/04/04 03:32:07;;;;;;;16.00;8.43;;;;;;;4.15;68.15;99429.22;1703521;83;21023;-63
2021/04/04 03:34:35;;;;;;;10.03;7.08;;;;;;;4.22;68.06;99435.30;1668037;85;21117;-62
2021/04/04 03:37:03;;;;;;;12.63;9.20;;;;;;;4.26;67.93;99437.86;1680730;84;21369;-64
2021/04/04 03:39:31;;;;;;;9.45;6.17;;;;;;;4.33;67.81;99435.13;1694264;84;21161;-63
2021/04/04 03:41:59;;;;;;;7.95;5.87;;;;;;;4.39;67.78;99432.43;1695281;84;21145;-63
2021/04/04 03:44:30;;;;;;;9.43;6.37;;;;;;;4.47;67.68;99423.34;1698777;84;21610;-64
2021/04/04 03:46:59;;;;;;;13.80;9.40;;;;;;;4.52;67.55;99432.02;1671767;84;21188;-63
2021/04/04 03:49:27;;;;;;;29.35;9.25;;;;;;;4.50;67.53;99424.27;1699125;84;21162;-64
2021/04/04 03:51:55;;;;;;;19.90;9.05;;;;;;;4.45;67.90;99429.94;1677773;84;21618;-62
2021/04/04 03:54:24;;;;;;;14.85;9.63;;;;;;;4.39;68.11;99439.59;1670910;85;21132;-63
2021/04/04 03:56:52;;;;;;;22.02;8.80;;;;;;;4.25;68.39;99435.39;1703165;84;22349;-63
2021/04/04 03:59:22;;;;;;;10.43;7.03;;;;;;;4.20;68.57;99428.57;1717930;82;21152;-63
2021/04/04 04:01:51;;;;;;;9.08;5.70;;;;;;;4.18;68.73;99430.62;1712385;82;21578;-64
2021/04/04 04:04:20;;;;;;;6.90;4.60;;;;;;;4.20;68.78;99431.23;1658654;86;21157;-63
2021/04/04 04:06:48;;;;;;;13.30;6.40;;;;;;;4.21;68.89;99430.20;1694825;83;21015;-64
2021/04/04 04:09:18;;;;;;;6.20;5.08;;;;;;;4.21;68.80;99431.02;1679306;85;21224;-64
2021/04/04 04:11:49;;;;;;;6.03;4.40;;;;;;;4.20;69.03;99436.55;1690199;83;21169;-63
2021/04/04 04:14:21;;;;;;;9.60;4.97;;;;;;;4.15;69.17;99439.86;1659633;86;22403;-63
2021/04/04 04:16:51;;;;;;;9.35;4.78;;;;;;;4.12;69.37;99444.30;1680096;84;21594;-65
2021/04/04 04:19:19;;;;;;;5.58;4.40;;;;;;;4.10;69.77;99442.86;1662348;85;21590;-64
2021/04/04 04:21:46;;;;;;;9.95;4.72;;;;;;;4.13;69.70;99451.73;1674528;85;21164;-62
2021/04/04 04:24:15;;;;;;;6.20;4.30;;;;;;;4.11;70.00;99456.47;1673206;85;21645;-64
2021/04/04 04:26:48;;;;;;;7.72;5.35;;;;;;;4.13;70.01;99452.55;1673154;85;21223;-63
2021/04/04 04:29:18;;;;;;;11.38;5.05;;;;;;;4.17;69.98;99463.06;1679987;84;21215;-62
2021/04/04 04:31:48;;;;;;;9.05;5.00;;;;;;;4.19;69.98;99467.67;1702182;84;20997;-62
2021/04/04 04:34:15;;;;;;;6.35;5.40;;;;;;;4.27;69.91;99471.91;1675710;83;21561;-64
2021/04/04 04:36:43;;;;;;;8.63;5.25;;;;;;;4.35;69.76;99471.17;1674612;85;21211;-63
2021/04/04 04:39:11;;;;;;;11.60;5.78;;;;;;;4.43;69.62;99476.73;1664634;85;22189;-64
2021/04/04 04:41:44;;;;;;;6.33;4.90;;;;;;;4.52;69.42;99478.10;1701743;83;21158;-63
2021/04/04 04:44:13;;;;;;;9.28;6.90;;;;;;;4.58;69.28;99474.58;1702851;83;21145;-64
2021/04/04 04:46:43;;;;;;;11.50;7.22;;;;;;;4.57;69.19;99473.45;1689365;85;21181;-63
2021/04/04 04:49:12;;;;;;;14.93;9.00;;;;;;;4.53;69.17;99477.08;1700092;83;21126;-63
2021/04/04 04:51:40;;;;;;;11.20;6.95;;;;;;;4.49;69.36;99477.73;1662778;85;22161;-63
2021/04/04 04:54:09;;;;;;;9.78;4.75;;;;;;;4.41;69.79;99474.82;1674604;85;20965;-64
2021/04/04 04:56:39;;;;;;;5.75;4.78;;;;;;;4.41;69.94;99478.81;1662399;86;21225;-63
2021/04/04 04:59:07;;;;;;;11.48;5.15;;;;;;;4.41;70.08;99477.48;1656832;85;21126;-63
2021/04/04 05:01:41;;;;;;;9.43;5.62;;;;;;;4.43;69.87;99481.24;1663593;85;21161;-64
2021/04/04 05:04:09;;;;;;;8.05;6.37;;;;;;;4.47;69.75;99474.45;1674660;85;22191;-64
2021/04/04 05:06:37;;;;;;;13.55;6.60;;;;;;;4.49;69.72;99479.88;1667331;85;21619;-64
2021/04/04 05:09:07;;;;;;;12.78;7.90;;;;;;;4.53;69.73;99486.40;1680450;84;21670;-64
2021/04/04 05:11:41;;;;;;;11.00;5.35;;;;;;;4.52;69.74;99494.08;1669248;85;21712;-64
2021/04/04 05:14:12;;;;;;;6.90;5.10;;;;;;;4.50;69.98;99494.01;1683972;84;21145;-63
2021/04/04 05:16:41;;;;;;;8.28;5.30;;;;;;;4.52;70.07;99495.92;1660180;86;21634;-64
2021/04/04 05:19:11;;;;;;;7.03;4.95;;;;;;;4.54;70.23;99492.03;1690478;83;21634;-64
2021/04/04 05:21:42;;;;;;;8.63;5.35;;;;;;;4.56;70.34;99488.62;1663031;84;21149;-64
2021/04/04 05:24:12;;;;;;;6.25;4.95;;;;;;;4.62;70.45;99494.42;1675075;84;22105;-65
2021/04/04 05:26:45;;;;;;;5.70;4.30;;;;;;;4.68;70.55;99496.23;1670275;84;21213;-62
2021/04/04 05:29:16;;;;;;;6.25;4.83;;;;;;;4.67;70.77;99499.92;1696686;83;21196;-66
2021/04/04 05:31:49;;;;;;;5.83;3.90;;;;;;;4.73;70.75;99499.06;1690241;83;21220;-65
2021/04/04 05:34:28;;;;;;;5.87;3.55;;;;;;;4.81;70.72;99501.95;1690714;83;21176;-63
2021/04/04 05:37:01;;;;;;;4.47;3.27;;;;;;;4.85;70.74;99495.16;1657247;85;21225;-62
2021/04/04 05:39:33;;;;;;;3.55;3.17;;;;;;;4.87;71.01;99502.43;1646709;85;21183;-63
2021/04/04 05:42:05;;;;;;;6.08;4.53;;;;;;;4.81;71.29;99507.29;1703024;84;21573;-63
2021/04/04 05:44:59;;;;;;;10.10;5.45;;;;;;;4.76;71.54;99502.61;1671807;85;21671;-65
2021/04/04 05:47:49;;;;;;;7.25;4.75;;;;;;;4.77;71.47;99508.25;1693361;83;21149;-64
2021/04/04 05:51:02;;;;;;;7.25;4.67;;;;;;;4.80;71.74;99500.32;1670569;85;21173;-65
2021/04/04 05:54:05;;;;;;;7.17;4.45;;;;;;;4.83;71.70;99501.24;1643500;87;21185;-64
2021/04/04 05:56:52;;;;;;;8.35;3.87;;;;;;;4.89;71.67;99501.71;1671534;84;21188;-65
2021/04/04 05:59:36;;;;;;;19.95;5.47;;;;;;;4.96;71.71;99504.30;1642086;87;21169;-63
2021/04/04 06:02:32;;;;;;;6.40;3.40;;;;;;;5.03;71.62;99504.56;1643606;86;21204;-62
2021/04/04 06:05:45;;;;;;;6.55;4.62;;;;;;;5.15;71.62;99497.98;1655324;85;21646;-62
2021/04/04 06:08:40;;;;;;;5.40;3.40;;;;;;;5.21;71.63;99509.11;1689981;84;21179;-64
2021/04/04 06:11:54;;;;;;;7.28;4.08;;;;;;;5.32;71.37;99515.06;1690028;84;21205;-62
2021/04/04 06:14:46;;;;;;;4.08;3.62;;;;;;;5.42;71.20;99510.01;1657072;85;21194;-64
2021/04/04 06:18:01;;;;;;;5.27;3.40;;;;;;;5.59;70.96;99509.74;1890368;76;22614;-63
2021/04/04 06:20:42;;;;;;;5.60;3.87;;;;;;;5.59;70.89;99512.41;1860246;77;21165;-64
2021/04/04 06:23:27;;;;;;;5.33;3.55;;;;;;;5.67;70.69;99512.63;1860178;77;21262;-65
2021/04/04 06:26:39;;;;;;;7.75;4.30;;;;;;;5.76;70.73;99513.95;1860141;77;21018;-62
2021/04/04 06:29:21;;;;;;;6.72;4.47;;;;;;;5.85;70.58;99510.48;1783885;78;21030;-64
2021/04/04 06:32:06;;;;;;;6.40;4.25;;;;;;;5.91;70.44;99509.09;1826472;78;20975;-64
2021/04/04 06:34:53;;;;;;;4.62;3.35;;;;;;;5.99;70.27;99518.14;1817245;77;21054;-64
2021/04/04 06:37:54;;;;;;;4.80;3.30;;;;;;;6.04;70.08;99523.59;1814573;77;21343;-65
2021/04/04 06:40:28;;;;;;;8.55;3.62;;;;;;;6.05;69.83;99522.56;1775173;80;21756;-63
2021/04/04 06:43:27;;;;;;;4.35;3.70;;;;;;;6.09;69.58;99522.41;1746605;82;21015;-63
2021/04/04 06:46:13;;;;;;;4.33;3.05;;;;;;;6.12;69.03;99525.98;1746500;82;21143;-62
2021/04/04 06:49:06;;;;;;;5.42;4.42;;;;;;;6.18;69.02;99525.61;1746572;82;21705;-63
2021/04/04 06:51:56;;;;;;;4.03;2.65;;;;;;;6.21;68.78;99534.49;1746435;82;21381;-63
2021/04/04 06:54:54;;;;;;;3.42;2.87;;;;;;;6.27;68.75;99535.45;1745776;82;21642;-64
2021/04/04 06:57:54;;;;;;;6.80;3.27;;;;;;;6.27;68.38;99536.27;1747484;81;21120;-63
2021/04/04 07:00:48;;;;;;;5.83;3.62;;;;;;;6.25;68.21;99538.34;1746991;80;21011;-64
2021/04/04 07:03:24;;;;;;;4.25;3.10;;;;;;;6.30;68.27;99536.33;1760146;80;21855;-63
2021/04/04 07:06:03;;;;;;;4.03;3.58;;;;;;;6.40;67.55;99539.27;1774129;80;21448;-65
2021/04/04 07:08:57;;;;;;;7.10;3.20;;;;;;;6.40;67.55;99539.27;1744879;80;21133;-64
2021/04/04 07:11:43;;;;;;;9.08;3.40;;;;;;;6.35;67.70;99545.81;1746400;81;21152;-64
2021/04/04 07:14:56;;;;;;;6.03;3.87;;;;;;;6.37;67.76;99539.73;1746459;82;21564;-63
2021/04/04 07:18:17;;;;;;;5.58;3.67;;;;;;;6.41;67.81;99552.41;1746184;81;20990;-62
2021/04/04 07:21:23;;;;;;;7.12;3.50;;;;;;;6.47;67.90;99551.52;1746402;81;22275;-64
2021/04/04 07:27:48;;;;;;;5.03;3.50;;;;;;;6.69;67.52;99555.81;1829842;76;23288;-63
2021/04/04 07:30:37;;;;;;;5.03;3.75;;;;;;;6.65;67.84;99558.66;1785045;80;21026;-66
2021/04/04 07:33:35;;;;;;;6.60;3.00;;;;;;;6.69;67.68;99558.48;1784529;80;21369;-65
2021/04/04 07:36:28;;;;;;;5.33;3.58;;;;;;;6.74;67.61;99562.63;1815281;78;21031;-62
2021/04/04 07:39:19;;;;;;;7.58;3.85;;;;;;;6.81;67.44;99555.86;1816575;79;21009;-64
2021/04/04 07:42:24;;;;;;;8.18;4.83;;;;;;;6.83;67.44;99556.44;1815172;79;21023;-63
2021/04/04 07:45:13;;;;;;;5.67;3.60;;;;;;;6.89;67.48;99556.86;1815197;79;21600;-65
2021/04/04 07:48:25;;;;;;;3.30;2.87;;;;;;;6.98;67.17;99562.98;1757663;78;21206;-65
2021/04/04 07:51:16;;;;;;;3.80;3.17;;;;;;;7.02;66.84;99564.67;1753819;81;20988;-65
2021/04/04 07:54:02;;;;;;;6.67;3.17;;;;;;;7.08;66.48;99562.42;1754039;81;21519;-65
2021/04/04 07:56:58;;;;;;;6.22;3.30;;;;;;;7.15;66.13;99560.44;1753832;81;21132;-63
2021/04/04 07:59:34;;;;;;;5.92;3.10;;;;;;;7.16;66.11;99559.92;1753975;81;21124;-65
2021/04/04 08:02:29;;;;;;;6.87;3.67;;;;;;;7.19;66.82;99562.97;1754044;81;21490;-64
2021/04/04 08:05:08;;;;;;;5.67;3.87;;;;;;;7.24;67.35;99571.09;1753891;81;21923;-63
2021/04/04 08:07:57;;;;;;;8.00;4.47;;;;;;;7.25;67.50;99575.39;1757228;80;21498;-64
2021/04/04 08:10:36;;;;;;;5.47;4.95;;;;;;;7.31;67.74;99566.98;1769063;80;21100;-65
2021/04/04 08:13:42;;;;;;;6.62;4.22;;;;;;;7.24;68.01;99572.42;1753899;81;21183;-65
2021/04/04 08:16:39;;;;;;;5.62;3.95;;;;;;;7.26;68.10;99573.02;1753968;81;21370;-63
2021/04/04 08:19:07;;;;;;;5.45;3.90;;;;;;;7.34;67.84;99569.99;1754391;81;21653;-64
2021/04/04 08:21:38;;;;;;;4.83;4.30;;;;;;;7.42;67.32;99572.34;1754042;81;21563;-62
2021/04/04 08:24:27;;;;;;;5.08;3.65;;;;;;;7.37;66.64;99568.22;1753942;81;21088;-69
2021/04/04 08:27:03;;;;;;;4.62;3.70;;;;;;;7.39;66.55;99571.45;1747757;80;21194;-64
2021/04/04 08:29:35;;;;;;;7.70;4.33;;;;;;;7.40;66.16;99568.27;1757812;80;21376;-65
2021/04/04 08:32:09;;;;;;;4.72;3.95;;;;;;;7.43;65.75;99563.80;1784525;80;21570;-63
2021/04/04 08:34:44;;;;;;;6.22;3.85;;;;;;;7.52;65.88;99569.09;1784293;80;21535;-65
2021/04/04 08:37:36;;;;;;;3.12;2.83;;;;;;;7.63;65.59;99556.73;1782457;80;21574;-64
2021/04/04 08:40:11;;;;;;;5.22;3.95;;;;;;;7.71;64.50;99561.75;1784430;80;21105;-65
2021/04/04 08:42:39;;;;;;;4.58;3.83;;;;;;;7.64;64.85;99561.86;1784300;80;21361;-63
2021/04/04 08:45:12;;;;;;;4.67;4.25;;;;;;;7.61;65.16;99562.86;1784316;80;21142;-66
2021/04/04 08:47:43;;;;;;;8.87;3.90;;;;;;;7.52;65.86;99566.42;1778520;80;21171;-67
2021/04/04 08:50:14;;;;;;;4.97;4.47;;;;;;;7.54;66.08;99568.84;1753290;81;21134;-64
2021/04/04 08:53:15;;;;;;;5.65;3.95;;;;;;;7.57;66.13;99569.73;1753333;81;21108;-66
2021/04/04 08:55:43;;;;;;;6.40;5.33;;;;;;;7.59;66.10;99564.42;1777587;80;21623;-62
2021/04/04 08:58:11;;;;;;;4.90;3.65;;;;;;;7.63;65.69;99570.11;1775730;80;21658;-63
2021/04/04 09:00:40;;;;;;;5.97;5.15;;;;;;;7.62;65.34;99573.86;1700469;80;21229;-65
2021/04/04 09:03:20;;;;;;;6.30;4.70;;;;;;;7.59;64.71;99569.77;1753988;80;21139;-63
2021/04/04 09:05:48;;;;;;;5.30;4.67;;;;;;;7.55;64.50;99559.25;1706854;82;21204;-65
2021/04/04 09:08:17;;;;;;;5.00;4.47;;;;;;;7.56;64.60;99566.23;1743527;81;22125;-63
2021/04/04 09:10:46;;;;;;;4.33;3.42;;;;;;;7.56;64.59;99563.56;1750322;81;21255;-63
2021/04/04 09:13:16;;;;;;;5.45;4.78;;;;;;;7.59;64.65;99567.09;1698927;81;21216;-64
2021/04/04 09:15:52;;;;;;;4.35;3.95;;;;;;;7.58;64.83;99555.31;1752152;81;21027;-64
2021/04/04 09:18:21;;;;;;;3.72;3.42;;;;;;;7.58;65.38;99561.45;1747942;81;21960;-64
2021/04/04 09:20:54;;;;;;;8.00;3.67;;;;;;;7.51;66.03;99559.42;1736612;81;21267;-64
2021/04/04 09:23:22;;;;;;;5.97;4.40;;;;;;;7.44;66.08;99558.20;1740265;81;21890;-63
2021/04/04 09:25:56;;;;;;;5.42;3.77;;;;;;;7.39;66.00;99562.61;1693680;81;21214;-64
2021/04/04 09:28:26;;;;;;;4.10;3.70;;;;;;;7.37;66.55;99553.50;1732940;82;21546;-62
2021/04/04 09:30:54;;;;;;;5.08;3.60;;;;;;;7.37;66.68;99566.06;1704496;82;21594;-64
2021/04/04 09:33:28;;;;;;;5.78;5.17;;;;;;;7.36;66.68;99558.55;1738686;82;21374;-64
2021/04/04 09:36:10;;;;;;;3.72;3.42;;;;;;;7.35;66.35;99557.44;1679048;83;21164;-64
2021/04/04 09:38:41;;;;;;;4.08;3.67;;;;;;;7.38;66.05;99561.82;1783018;80;21102;-64
2021/04/04 09:41:10;;;;;;;4.28;3.87;;;;;;;7.40;65.81;99555.70;1784960;80;21180;-64
2021/04/04 09:43:40;;;;;;;4.53;3.12;;;;;;;7.42;65.75;99552.28;1761667;80;21133;-65
2021/04/04 09:46:08;;;;;;;4.00;3.55;;;;;;;7.43;65.81;99546.41;1770796;80;21602;-63
2021/04/04 09:48:40;;;;;;;3.00;2.80;;;;;;;7.43;65.82;99551.21;1763076;80;21195;-64
2021/04/04 09:51:14;;;;;;;4.33;4.03;;;;;;;7.47;65.76;99559.61;1778488;80;21169;-63
2021/04/04 09:53:51;;;;;;;4.40;3.87;;;;;;;7.55;65.25;99545.05;1775675;80;21190;-67
2021/04/04 09:56:31;;;;;;;7.10;4.20;;;;;;;7.65;64.92;99547.95;1779474;80;21153;-64
2021/04/04 09:59:01;;;;;;;4.97;4.27;;;;;;;7.73;64.74;99545.73;1749797;80;21379;-62
2021/04/04 10:01:32;;;;;;;5.62;5.08;;;;;;;7.82;63.61;99544.31;1768057;79;21177;-63
2021/04/04 10:04:05;;;;;;;5.83;4.20;;;;;;;7.87;63.09;99544.42;1775458;80;20981;-64
2021/04/04 10:06:35;;;;;;;4.92;4.42;;;;;;;7.92;62.68;99549.08;1718863;82;21048;-64
2021/04/04 10:09:08;;;;;;;12.47;5.53;;;;;;;7.92;62.62;99549.08;1707101;82;21148;-64
2021/04/04 10:11:38;;;;;;;7.60;4.85;;;;;;;7.92;62.80;99547.73;1731053;82;21188;-63
2021/04/04 10:14:14;;;;;;;7.40;6.65;;;;;;;7.87;63.27;99549.78;1728746;82;21140;-65
2021/04/04 10:16:44;;;;;;;6.05;4.67;;;;;;;7.82;63.51;99555.55;1710576;82;21157;-64
2021/04/04 10:19:16;;;;;;;5.08;4.47;;;;;;;7.78;63.68;99550.38;1713817;82;21033;-65
2021/04/04 10:22:01;;;;;;;4.42;4.03;;;;;;;7.80;63.62;99542.42;1751865;82;21136;-64
2021/04/04 10:24:32;;;;;;;5.75;4.47;;;;;;;7.88;63.07;99542.56;1732370;82;21609;-63
2021/04/04 10:27:23;;;;;;;4.72;4.00;;;;;;;7.93;62.75;99544.53;1727661;81;21578;-63
2021/04/04 10:32:54;;;;;;;4.03;3.62;;;;;;;8.10;60.72;99550.80;1850228;77;28247;-65
2021/04/04 10:35:40;;;;;;;4.00;3.25;;;;;;;8.05;60.14;99559.55;1817935;78;21540;-64
2021/04/04 10:38:13;;;;;;;5.08;3.85;;;;;;;8.02;59.40;99541.25;1806148;78;21381;-62
2021/04/04 10:40:47;;;;;;;;;;;;;;;8.06;59.58;99541.58;1820635;77;21015;-62
2021/04/04 10:43:17;;;;;;;5.37;4.17;;;;;;;8.15;58.61;99539.64;1822074;78;20283;-64
2021/04/04 10:46:02;;;;;;;3.30;3.00;;;;;;;8.22;57.60;99552.91;1809570;79;21563;-64
2021/04/04 10:48:37;;;;;;;3.75;3.45;;;;;;;8.24;57.71;99537.42;1812494;79;20959;-62
2021/04/04 10:51:08;;;;;;;5.53;4.20;;;;;;;8.26;57.95;99540.66;1844865;77;21364;-67
2021/04/04 10:53:36;;;;;;;6.33;4.72;;;;;;;8.29;58.05;99542.88;1789483;80;21034;-67
2021/04/04 10:56:07;;;;;;;6.78;4.85;;;;;;;8.35;58.31;99539.25;1758142;80;21017;-66
2021/04/04 10:58:36;;;;;;;3.50;3.20;;;;;;;8.44;58.10;99541.05;1783515;80;21181;-66
2021/04/04 11:01:06;;;;;;;3.50;3.20;;;;;;;8.54;57.49;99545.23;1734362;82;21204;-67
2021/04/04 11:03:34;;;;;;;4.78;4.03;;;;;;;8.62;57.30;99542.19;1761364;81;21401;-65
2021/04/04 11:06:05;;;;;;;3.10;2.80;;;;;;;8.65;56.49;99537.15;1760885;81;21166;-65
2021/04/04 11:08:33;;;;;;;4.95;3.75;;;;;;;8.69;55.23;99540.16;1747104;81;21174;-66
2021/04/04 11:11:02;;;;;;;3.75;3.45;;;;;;;8.75;54.98;99525.27;1780210;80;21267;-61
2021/04/04 11:13:31;;;;;;;4.08;3.72;;;;;;;8.84;54.57;99528.87;1750692;80;21141;-60
2021/04/04 11:16:03;;;;;;;3.65;3.45;;;;;;;8.88;54.28;99532.70;1748547;82;21185;-63
2021/04/04 11:18:48;;;;;;;3.45;3.15;;;;;;;8.92;53.31;99524.48;1767313;80;21619;-61
2021/04/04 11:21:22;;;;;;;5.62;3.47;;;;;;;8.99;53.06;99523.25;1744303;82;20988;-62
2021/04/04 11:23:53;;;;;;;10.93;3.60;;;;;;;9.11;52.91;99522.63;1744977;81;21592;-61
2021/04/04 11:26:33;;;;;;;3.17;2.87;;;;;;;9.25;53.01;99506.22;1749748;81;21159;-66
2021/04/04 11:29:17;;;;;;;4.78;4.37;;;;;;;9.44;52.17;99512.95;1726916;82;21591;-63
2021/04/04 11:31:56;;;;;;;4.43;3.93;;;;;;;9.58;51.05;99506.17;1689989;84;21162;-62
2021/04/04 11:37:19;;;;;;;4.12;3.67;;;;;;;9.95;50.60;99505.84;1887699;76;28715;-61
2021/04/04 11:40:23;;;;;;;5.03;4.12;;;;;;;10.03;49.40;99490.61;1784167;78;21046;-66
2021/04/04 11:43:11;;;;;;;4.58;3.58;;;;;;;10.10;49.13;99500.37;1815375;78;21371;-63
2021/04/04 11:45:41;;;;;;;4.50;4.10;;;;;;;10.22;49.51;99497.03;1734401;81;21619;-63
2021/04/04 11:48:31;;;;;;;3.72;3.35;;;;;;;10.32;49.68;99502.52;1804924;78;21011;-66
2021/04/04 11:51:18;;;;;;;4.80;3.70;;;;;;;10.47;49.17;99483.86;1756601;81;21055;-65
2021/04/04 11:53:47;;;;;;;4.22;2.72;;;;;;;10.68;48.90;99483.00;1821805;78;20977;-66
2021/04/04 11:56:45;;;;;;;4.42;2.80;;;;;;;10.91;47.81;99504.71;1809843;78;21350;-65
2021/04/04 11:59:14;;;;;;;2.90;2.70;;;;;;;10.99;45.53;99500.73;1777827;80;20995;-67
2021/04/04 12:01:44;;;;;;;3.92;2.70;;;;;;;10.88;44.94;99497.16;1777130;78;21582;-62
2021/04/04 12:04:33;;;;;;;2.77;2.50;;;;;;;10.77;45.80;99496.79;1786817;80;21014;-65
2021/04/04 12:07:05;;;;;;;2.27;2.08;;;;;;;10.75;46.00;99476.05;1788705;79;21548;-65
2021/04/04 12:09:34;;;;;;;2.85;2.65;;;;;;;10.71;44.97;99491.08;1802161;79;21193;-65
2021/04/04 12:12:06;;;;;;;3.25;2.30;;;;;;;10.73;44.21;99480.89;1783324;80;21003;-65
2021/04/04 12:14:53;;;;;;;3.15;2.70;;;;;;;10.77;44.24;99480.65;1769140;80;21149;-67
2021/04/04 12:17:24;;;;;;;3.45;3.08;;;;;;;10.88;44.48;99472.95;1776849;78;21054;-66
2021/04/04 12:19:54;;;;;;;3.20;2.90;;;;;;;11.01;44.81;99475.73;1775601;79;21614;-67
2021/04/04 12:22:38;;;;;;;4.25;3.85;;;;;;;11.06;45.70;99469.04;1773986;79;21209;-66
2021/04/04 12:25:09;;;;;;;4.33;3.80;;;;;;;11.05;45.83;99469.57;1773820;78;21654;-66
2021/04/04 12:27:39;;;;;;;3.85;3.47;;;;;;;11.03;45.36;99469.56;1764841;81;21030;-64